sensor_id;sensor_type;location;lat;lon;timestamp;P1;durP1;ratioP1;P2;durP2;ratioP2
49416;SDS011;35290;39.550;8.786;2022-12-07T00:03:58;57.30;;;30.90;;
49416;SDS011;35290;39.550;8.786;2022-12-07T00:06:31;43.70;;;24.35;;
49416;SDS011;35290;39.550;8.786;2022-12-07T00:09:04;41.80;;;20.92;;
49416;SDS011;35290;39.550;8.786;2022-12-07T00:11:30;35.58;;;17.92;;
49416;SDS011;35290;39.550;8.786;2022-12-07T00:13:57;33.28;;;17.08;;
49416;SDS011;35290;39.550;8.786;2022-12-07T00:16:25;33.20;;;17.08;;
49416;SDS011;35290;39.550;8.786;2022-12-07T00:18:52;37.00;;;17.08;;
49416;SDS011;35290;39.550;8.786;2022-12-07T00:21:22;27.35;;;16.60;;
49416;SDS011;35290;39.550;8.786;2022-12-07T00:23:52;29.77;;;16.02;;
49416;SDS011;35290;39.550;8.786;2022-12-07T00:26:19;24.70;;;14.27;;
49416;SDS011;35290;39.550;8.786;2022-12-07T00:28:46;25.00;;;13.77;;
49416;SDS011;35290;39.550;8.786;2022-12-07T00:31:13;26.52;;;14.43;;
49416;SDS011;35290;39.550;8.786;2022-12-07T00:33:39;23.63;;;14.82;;
49416;SDS011;35290;39.550;8.786;2022-12-07T00:36:06;21.00;;;13.55;;
49416;SDS011;35290;39.550;8.786;2022-12-07T00:38:33;22.98;;;13.23;;
49416;SDS011;35290;39.550;8.786;2022-12-07T00:41:01;25.95;;;13.75;;
49416;SDS011;35290;39.550;8.786;2022-12-07T00:43:29;27.35;;;13.95;;
49416;SDS011;35290;39.550;8.786;2022-12-07T00:45:54;23.92;;;13.32;;
49416;SDS011;35290;39.550;8.786;2022-12-07T00:48:20;22.95;;;13.20;;
49416;SDS011;35290;39.550;8.786;2022-12-07T00:50:52;25.90;;;12.50;;
49416;SDS011;35290;39.550;8.786;2022-12-07T00:53:17;25.48;;;13.25;;
49416;SDS011;35290;39.550;8.786;2022-12-07T00:55:43;23.98;;;13.15;;
49416;SDS011;35290;39.550;8.786;2022-12-07T00:58:09;25.27;;;13.65;;
49416;SDS011;35290;39.550;8.786;2022-12-07T01:00:35;24.17;;;14.23;;
49416;SDS011;35290;39.550;8.786;2022-12-07T01:03:02;28.75;;;14.80;;
49416;SDS011;35290;39.550;8.786;2022-12-07T01:05:28;24.27;;;14.27;;
49416;SDS011;35290;39.550;8.786;2022-12-07T01:07:54;27.60;;;13.98;;
49416;SDS011;35290;39.550;8.786;2022-12-07T01:10:19;24.77;;;13.18;;
49416;SDS011;35290;39.550;8.786;2022-12-07T01:12:44;24.45;;;12.68;;
49416;SDS011;35290;39.550;8.786;2022-12-07T01:15:10;25.42;;;12.77;;
49416;SDS011;35290;39.550;8.786;2022-12-07T01:17:36;25.58;;;12.75;;
49416;SDS011;35290;39.550;8.786;2022-12-07T01:20:01;21.25;;;11.80;;
49416;SDS011;35290;39.550;8.786;2022-12-07T01:22:28;21.23;;;10.90;;
49416;SDS011;35290;39.550;8.786;2022-12-07T01:24:53;21.88;;;10.13;;
49416;SDS011;35290;39.550;8.786;2022-12-07T01:27:18;20.05;;;11.30;;
49416;SDS011;35290;39.550;8.786;2022-12-07T01:29:45;17.73;;;10.13;;
49416;SDS011;35290;39.550;8.786;2022-12-07T01:32:10;20.50;;;9.75;;
49416;SDS011;35290;39.550;8.786;2022-12-07T01:34:36;18.77;;;10.52;;
49416;SDS011;35290;39.550;8.786;2022-12-07T01:37:01;22.85;;;12.45;;
49416;SDS011;35290;39.550;8.786;2022-12-07T01:39:27;20.23;;;10.27;;
49416;SDS011;35290;39.550;8.786;2022-12-07T01:41:52;19.25;;;10.32;;
49416;SDS011;35290;39.550;8.786;2022-12-07T01:46:47;18.33;;;10.05;;
49416;SDS011;35290;39.550;8.786;2022-12-07T01:49:20;20.58;;;10.57;;
49416;SDS011;35290;39.550;8.786;2022-12-07T01:51:52;20.50;;;10.65;;
49416;SDS011;35290;39.550;8.786;2022-12-07T01:54:22;20.75;;;10.00;;
49416;SDS011;35290;39.550;8.786;2022-12-07T01:56:50;16.65;;;10.55;;
49416;SDS011;35290;39.550;8.786;2022-12-07T01:59:17;19.95;;;9.82;;
49416;SDS011;35290;39.550;8.786;2022-12-07T02:01:43;16.13;;;9.02;;
49416;SDS011;35290;39.550;8.786;2022-12-07T02:04:09;18.83;;;9.45;;
49416;SDS011;35290;39.550;8.786;2022-12-07T02:06:35;14.75;;;8.90;;
49416;SDS011;35290;39.550;8.786;2022-12-07T02:09:01;19.65;;;10.13;;
49416;SDS011;35290;39.550;8.786;2022-12-07T02:11:27;17.15;;;8.98;;
49416;SDS011;35290;39.550;8.786;2022-12-07T02:13:53;14.63;;;8.88;;
49416;SDS011;35290;39.550;8.786;2022-12-07T02:16:38;16.98;;;9.95;;
49416;SDS011;35290;39.550;8.786;2022-12-07T02:27:11;22.40;;;10.95;;
49416;SDS011;35290;39.550;8.786;2022-12-07T02:32:35;20.00;;;9.55;;
49416;SDS011;35290;39.550;8.786;2022-12-07T02:38:29;17.67;;;10.40;;
49416;SDS011;35290;39.550;8.786;2022-12-07T02:41:03;18.85;;;10.73;;
49416;SDS011;35290;39.550;8.786;2022-12-07T02:43:43;17.98;;;10.38;;
49416;SDS011;35290;39.550;8.786;2022-12-07T02:46:13;18.92;;;10.10;;
49416;SDS011;35290;39.550;8.786;2022-12-07T02:48:40;18.95;;;11.00;;
49416;SDS011;35290;39.550;8.786;2022-12-07T02:51:06;22.75;;;11.18;;
49416;SDS011;35290;39.550;8.786;2022-12-07T02:53:36;22.83;;;11.18;;
49416;SDS011;35290;39.550;8.786;2022-12-07T02:56:16;20.38;;;11.00;;
49416;SDS011;35290;39.550;8.786;2022-12-07T02:58:54;21.05;;;11.25;;
49416;SDS011;35290;39.550;8.786;2022-12-07T03:10:06;18.75;;;9.95;;
49416;SDS011;35290;39.550;8.786;2022-12-07T03:12:38;14.98;;;8.82;;
49416;SDS011;35290;39.550;8.786;2022-12-07T03:15:14;19.88;;;10.43;;
49416;SDS011;35290;39.550;8.786;2022-12-07T03:17:44;14.65;;;8.75;;
49416;SDS011;35290;39.550;8.786;2022-12-07T03:20:11;17.42;;;8.57;;
49416;SDS011;35290;39.550;8.786;2022-12-07T03:22:44;12.48;;;7.68;;
49416;SDS011;35290;39.550;8.786;2022-12-07T03:25:11;11.18;;;6.97;;
49416;SDS011;35290;39.550;8.786;2022-12-07T03:27:44;16.35;;;7.30;;
49416;SDS011;35290;39.550;8.786;2022-12-07T03:30:22;14.32;;;6.90;;
49416;SDS011;35290;39.550;8.786;2022-12-07T03:35:19;24.48;;;11.23;;
49416;SDS011;35290;39.550;8.786;2022-12-07T03:37:50;35.15;;;13.05;;
49416;SDS011;35290;39.550;8.786;2022-12-07T03:40:25;24.35;;;10.88;;
49416;SDS011;35290;39.550;8.786;2022-12-07T03:42:53;20.63;;;10.55;;
49416;SDS011;35290;39.550;8.786;2022-12-07T03:45:21;17.88;;;9.55;;
49416;SDS011;35290;39.550;8.786;2022-12-07T03:48:00;16.02;;;8.68;;
49416;SDS011;35290;39.550;8.786;2022-12-07T03:50:37;17.58;;;8.30;;
49416;SDS011;35290;39.550;8.786;2022-12-07T03:53:12;19.73;;;8.05;;
49416;SDS011;35290;39.550;8.786;2022-12-07T03:55:42;18.58;;;8.38;;
49416;SDS011;35290;39.550;8.786;2022-12-07T03:58:10;17.88;;;8.93;;
49416;SDS011;35290;39.550;8.786;2022-12-07T04:00:37;16.42;;;9.00;;
49416;SDS011;35290;39.550;8.786;2022-12-07T04:03:03;14.32;;;7.90;;
49416;SDS011;35290;39.550;8.786;2022-12-07T04:05:29;17.15;;;7.95;;
49416;SDS011;35290;39.550;8.786;2022-12-07T04:07:54;15.80;;;8.43;;
49416;SDS011;35290;39.550;8.786;2022-12-07T04:10:20;19.45;;;9.68;;
49416;SDS011;35290;39.550;8.786;2022-12-07T04:12:45;19.27;;;10.10;;
49416;SDS011;35290;39.550;8.786;2022-12-07T04:15:11;20.23;;;10.50;;
49416;SDS011;35290;39.550;8.786;2022-12-07T04:17:36;18.95;;;10.98;;
49416;SDS011;35290;39.550;8.786;2022-12-07T04:20:02;17.83;;;9.90;;
49416;SDS011;35290;39.550;8.786;2022-12-07T04:22:29;20.73;;;9.82;;
49416;SDS011;35290;39.550;8.786;2022-12-07T04:24:55;17.27;;;9.68;;
49416;SDS011;35290;39.550;8.786;2022-12-07T04:27:20;14.68;;;8.77;;
49416;SDS011;35290;39.550;8.786;2022-12-07T04:29:46;15.75;;;8.25;;
49416;SDS011;35290;39.550;8.786;2022-12-07T04:32:11;17.48;;;8.80;;
49416;SDS011;35290;39.550;8.786;2022-12-07T04:34:37;25.83;;;9.65;;
49416;SDS011;35290;39.550;8.786;2022-12-07T04:37:02;22.05;;;8.65;;
49416;SDS011;35290;39.550;8.786;2022-12-07T04:39:29;14.30;;;8.57;;
49416;SDS011;35290;39.550;8.786;2022-12-07T04:41:55;16.63;;;8.50;;
49416;SDS011;35290;39.550;8.786;2022-12-07T04:44:22;17.48;;;8.50;;
49416;SDS011;35290;39.550;8.786;2022-12-07T04:46:48;18.73;;;9.05;;
49416;SDS011;35290;39.550;8.786;2022-12-07T04:49:14;19.83;;;8.85;;
49416;SDS011;35290;39.550;8.786;2022-12-07T04:51:40;24.98;;;9.85;;
49416;SDS011;35290;39.550;8.786;2022-12-07T04:54:06;21.50;;;9.57;;
49416;SDS011;35290;39.550;8.786;2022-12-07T04:56:32;21.48;;;9.98;;
49416;SDS011;35290;39.550;8.786;2022-12-07T04:58:57;19.65;;;8.55;;
49416;SDS011;35290;39.550;8.786;2022-12-07T05:01:23;18.70;;;9.05;;
49416;SDS011;35290;39.550;8.786;2022-12-07T05:03:49;25.33;;;10.93;;
49416;SDS011;35290;39.550;8.786;2022-12-07T05:06:15;21.77;;;10.68;;
49416;SDS011;35290;39.550;8.786;2022-12-07T05:08:40;25.92;;;11.85;;
49416;SDS011;35290;39.550;8.786;2022-12-07T05:11:08;24.02;;;11.45;;
49416;SDS011;35290;39.550;8.786;2022-12-07T05:13:34;26.17;;;11.68;;
49416;SDS011;35290;39.550;8.786;2022-12-07T05:15:59;23.33;;;11.68;;
49416;SDS011;35290;39.550;8.786;2022-12-07T05:18:25;24.85;;;12.95;;
49416;SDS011;35290;39.550;8.786;2022-12-07T05:20:51;20.58;;;10.63;;
49416;SDS011;35290;39.550;8.786;2022-12-07T05:23:17;25.15;;;9.68;;
49416;SDS011;35290;39.550;8.786;2022-12-07T05:25:43;26.25;;;10.23;;
49416;SDS011;35290;39.550;8.786;2022-12-07T05:28:09;20.63;;;10.63;;
49416;SDS011;35290;39.550;8.786;2022-12-07T05:30:34;18.02;;;10.50;;
49416;SDS011;35290;39.550;8.786;2022-12-07T05:33:00;24.88;;;10.80;;
49416;SDS011;35290;39.550;8.786;2022-12-07T05:35:26;21.23;;;9.95;;
49416;SDS011;35290;39.550;8.786;2022-12-07T05:37:51;21.98;;;10.40;;
49416;SDS011;35290;39.550;8.786;2022-12-07T05:40:17;22.80;;;11.10;;
49416;SDS011;35290;39.550;8.786;2022-12-07T05:42:54;18.80;;;10.77;;
49416;SDS011;35290;39.550;8.786;2022-12-07T05:45:19;27.35;;;11.05;;
49416;SDS011;35290;39.550;8.786;2022-12-07T05:47:45;23.13;;;10.88;;
49416;SDS011;35290;39.550;8.786;2022-12-07T05:50:10;20.38;;;11.23;;
49416;SDS011;35290;39.550;8.786;2022-12-07T05:52:36;27.83;;;10.82;;
49416;SDS011;35290;39.550;8.786;2022-12-07T05:55:01;21.67;;;10.43;;
49416;SDS011;35290;39.550;8.786;2022-12-07T05:57:26;23.00;;;11.60;;
49416;SDS011;35290;39.550;8.786;2022-12-07T05:59:52;20.88;;;10.25;;
49416;SDS011;35290;39.550;8.786;2022-12-07T06:02:17;23.30;;;11.20;;
49416;SDS011;35290;39.550;8.786;2022-12-07T06:04:44;24.70;;;11.10;;
49416;SDS011;35290;39.550;8.786;2022-12-07T06:07:11;19.92;;;10.95;;
49416;SDS011;35290;39.550;8.786;2022-12-07T06:09:38;23.05;;;11.25;;
49416;SDS011;35290;39.550;8.786;2022-12-07T06:12:04;25.02;;;13.15;;
49416;SDS011;35290;39.550;8.786;2022-12-07T06:14:49;22.80;;;12.73;;
49416;SDS011;35290;39.550;8.786;2022-12-07T06:17:14;24.63;;;13.38;;
49416;SDS011;35290;39.550;8.786;2022-12-07T06:19:40;22.60;;;12.73;;
49416;SDS011;35290;39.550;8.786;2022-12-07T06:22:06;23.05;;;12.40;;
49416;SDS011;35290;39.550;8.786;2022-12-07T06:24:32;18.95;;;11.25;;
49416;SDS011;35290;39.550;8.786;2022-12-07T06:26:58;20.77;;;11.80;;
49416;SDS011;35290;39.550;8.786;2022-12-07T06:29:24;19.70;;;12.15;;
49416;SDS011;35290;39.550;8.786;2022-12-07T06:31:49;25.90;;;13.55;;
49416;SDS011;35290;39.550;8.786;2022-12-07T06:34:16;30.17;;;15.30;;
49416;SDS011;35290;39.550;8.786;2022-12-07T06:36:47;35.60;;;17.58;;
49416;SDS011;35290;39.550;8.786;2022-12-07T06:39:16;49.90;;;30.88;;
49416;SDS011;35290;39.550;8.786;2022-12-07T06:41:43;39.58;;;25.27;;
49416;SDS011;35290;39.550;8.786;2022-12-07T06:44:08;38.13;;;26.02;;
49416;SDS011;35290;39.550;8.786;2022-12-07T06:46:34;36.33;;;20.42;;
49416;SDS011;35290;39.550;8.786;2022-12-07T06:49:02;30.15;;;17.65;;
49416;SDS011;35290;39.550;8.786;2022-12-07T06:51:34;30.65;;;16.88;;
49416;SDS011;35290;39.550;8.786;2022-12-07T06:56:27;51.78;;;27.92;;
49416;SDS011;35290;39.550;8.786;2022-12-07T06:58:53;62.85;;;37.78;;
49416;SDS011;35290;39.550;8.786;2022-12-07T07:01:19;63.40;;;35.85;;
49416;SDS011;35290;39.550;8.786;2022-12-07T07:03:45;58.80;;;33.40;;
49416;SDS011;35290;39.550;8.786;2022-12-07T07:06:12;57.30;;;32.60;;
49416;SDS011;35290;39.550;8.786;2022-12-07T07:08:38;49.88;;;31.08;;
49416;SDS011;35290;39.550;8.786;2022-12-07T07:11:04;54.58;;;33.72;;
49416;SDS011;35290;39.550;8.786;2022-12-07T07:13:30;55.13;;;34.03;;
49416;SDS011;35290;39.550;8.786;2022-12-07T07:15:56;63.17;;;36.38;;
49416;SDS011;35290;39.550;8.786;2022-12-07T07:18:21;72.32;;;41.10;;
49416;SDS011;35290;39.550;8.786;2022-12-07T07:20:52;74.78;;;43.00;;
49416;SDS011;35290;39.550;8.786;2022-12-07T07:23:18;81.13;;;44.42;;
49416;SDS011;35290;39.550;8.786;2022-12-07T07:25:45;88.82;;;44.85;;
49416;SDS011;35290;39.550;8.786;2022-12-07T07:28:10;83.45;;;44.05;;
49416;SDS011;35290;39.550;8.786;2022-12-07T07:30:36;101.00;;;47.83;;
49416;SDS011;35290;39.550;8.786;2022-12-07T07:33:02;101.50;;;49.55;;
49416;SDS011;35290;39.550;8.786;2022-12-07T07:35:29;100.50;;;50.72;;
49416;SDS011;35290;39.550;8.786;2022-12-07T07:37:55;93.93;;;48.83;;
49416;SDS011;35290;39.550;8.786;2022-12-07T07:40:20;79.38;;;45.35;;
49416;SDS011;35290;39.550;8.786;2022-12-07T07:42:47;85.60;;;44.17;;
49416;SDS011;35290;39.550;8.786;2022-12-07T07:45:13;68.50;;;39.47;;
49416;SDS011;35290;39.550;8.786;2022-12-07T07:47:39;57.65;;;33.42;;
49416;SDS011;35290;39.550;8.786;2022-12-07T07:50:04;50.53;;;29.83;;
49416;SDS011;35290;39.550;8.786;2022-12-07T07:52:31;38.80;;;26.42;;
49416;SDS011;35290;39.550;8.786;2022-12-07T07:54:57;41.30;;;25.95;;
49416;SDS011;35290;39.550;8.786;2022-12-07T07:57:22;47.75;;;26.48;;
49416;SDS011;35290;39.550;8.786;2022-12-07T07:59:48;47.85;;;27.05;;
49416;SDS011;35290;39.550;8.786;2022-12-07T08:02:15;49.75;;;28.92;;
49416;SDS011;35290;39.550;8.786;2022-12-07T08:04:42;54.25;;;30.55;;
49416;SDS011;35290;39.550;8.786;2022-12-07T08:07:07;46.60;;;30.30;;
49416;SDS011;35290;39.550;8.786;2022-12-07T08:09:33;58.95;;;35.25;;
49416;SDS011;35290;39.550;8.786;2022-12-07T08:11:58;58.10;;;36.92;;
49416;SDS011;35290;39.550;8.786;2022-12-07T08:14:24;55.58;;;35.22;;
49416;SDS011;35290;39.550;8.786;2022-12-07T08:16:50;59.63;;;33.78;;
49416;SDS011;35290;39.550;8.786;2022-12-07T08:19:16;63.60;;;37.80;;
49416;SDS011;35290;39.550;8.786;2022-12-07T08:21:41;60.50;;;35.88;;
49416;SDS011;35290;39.550;8.786;2022-12-07T08:24:07;59.85;;;34.35;;
49416;SDS011;35290;39.550;8.786;2022-12-07T08:26:32;59.17;;;35.15;;
49416;SDS011;35290;39.550;8.786;2022-12-07T08:28:59;73.88;;;45.20;;
49416;SDS011;35290;39.550;8.786;2022-12-07T08:31:24;55.72;;;32.03;;
49416;SDS011;35290;39.550;8.786;2022-12-07T08:33:50;48.17;;;30.00;;
49416;SDS011;35290;39.550;8.786;2022-12-07T08:36:15;43.17;;;28.55;;
49416;SDS011;35290;39.550;8.786;2022-12-07T08:38:41;40.78;;;25.60;;
49416;SDS011;35290;39.550;8.786;2022-12-07T08:41:12;34.22;;;21.52;;
49416;SDS011;35290;39.550;8.786;2022-12-07T08:43:38;28.75;;;17.05;;
49416;SDS011;35290;39.550;8.786;2022-12-07T08:46:18;23.65;;;12.63;;
49416;SDS011;35290;39.550;8.786;2022-12-07T08:48:49;17.25;;;10.23;;
49416;SDS011;35290;39.550;8.786;2022-12-07T08:51:22;21.42;;;11.23;;
49416;SDS011;35290;39.550;8.786;2022-12-07T08:53:48;19.67;;;11.73;;
49416;SDS011;35290;39.550;8.786;2022-12-07T08:56:14;24.80;;;11.45;;
49416;SDS011;35290;39.550;8.786;2022-12-07T08:58:39;19.45;;;10.38;;
49416;SDS011;35290;39.550;8.786;2022-12-07T09:01:06;27.65;;;12.43;;
49416;SDS011;35290;39.550;8.786;2022-12-07T09:03:31;49.22;;;25.75;;
49416;SDS011;35290;39.550;8.786;2022-12-07T09:05:57;60.67;;;30.75;;
49416;SDS011;35290;39.550;8.786;2022-12-07T09:08:25;54.15;;;29.08;;
49416;SDS011;35290;39.550;8.786;2022-12-07T09:10:52;49.58;;;23.48;;
49416;SDS011;35290;39.550;8.786;2022-12-07T09:13:17;40.30;;;18.92;;
49416;SDS011;35290;39.550;8.786;2022-12-07T09:15:43;33.28;;;17.48;;
49416;SDS011;35290;39.550;8.786;2022-12-07T09:18:08;29.73;;;13.70;;
49416;SDS011;35290;39.550;8.786;2022-12-07T09:20:33;24.35;;;10.52;;
49416;SDS011;35290;39.550;8.786;2022-12-07T09:22:59;21.33;;;7.50;;
49416;SDS011;35290;39.550;8.786;2022-12-07T09:25:24;13.85;;;6.07;;
49416;SDS011;35290;39.550;8.786;2022-12-07T09:27:56;22.02;;;9.13;;
49416;SDS011;35290;39.550;8.786;2022-12-07T09:32:48;14.20;;;7.43;;
49416;SDS011;35290;39.550;8.786;2022-12-07T09:35:14;16.55;;;6.00;;
49416;SDS011;35290;39.550;8.786;2022-12-07T09:37:39;12.30;;;3.92;;
49416;SDS011;35290;39.550;8.786;2022-12-07T09:40:05;13.00;;;4.93;;
49416;SDS011;35290;39.550;8.786;2022-12-07T09:42:38;11.02;;;4.38;;
49416;SDS011;35290;39.550;8.786;2022-12-07T09:45:05;19.90;;;4.82;;
49416;SDS011;35290;39.550;8.786;2022-12-07T09:47:44;12.45;;;3.90;;
49416;SDS011;35290;39.550;8.786;2022-12-07T09:50:19;13.57;;;3.50;;
49416;SDS011;35290;39.550;8.786;2022-12-07T09:52:47;11.93;;;3.38;;
49416;SDS011;35290;39.550;8.786;2022-12-07T09:55:14;10.57;;;3.22;;
49416;SDS011;35290;39.550;8.786;2022-12-07T09:57:41;8.25;;;2.92;;
49416;SDS011;35290;39.550;8.786;2022-12-07T10:00:14;10.38;;;3.03;;
49416;SDS011;35290;39.550;8.786;2022-12-07T10:02:43;11.20;;;3.40;;
49416;SDS011;35290;39.550;8.786;2022-12-07T10:05:13;14.15;;;2.80;;
49416;SDS011;35290;39.550;8.786;2022-12-07T10:07:41;17.83;;;2.88;;
49416;SDS011;35290;39.550;8.786;2022-12-07T10:13:09;10.65;;;2.83;;
49416;SDS011;35290;39.550;8.786;2022-12-07T10:21:05;13.32;;;3.35;;
49416;SDS011;35290;39.550;8.786;2022-12-07T10:23:33;12.02;;;3.80;;
49416;SDS011;35290;39.550;8.786;2022-12-07T10:25:59;9.90;;;3.50;;
49416;SDS011;35290;39.550;8.786;2022-12-07T10:28:27;17.83;;;4.32;;
49416;SDS011;35290;39.550;8.786;2022-12-07T10:31:00;11.07;;;3.38;;
49416;SDS011;35290;39.550;8.786;2022-12-07T10:36:24;12.00;;;3.25;;
49416;SDS011;35290;39.550;8.786;2022-12-07T10:39:12;15.90;;;3.40;;
49416;SDS011;35290;39.550;8.786;2022-12-07T10:42:02;15.95;;;3.13;;
49416;SDS011;35290;39.550;8.786;2022-12-07T10:44:29;13.18;;;4.10;;
49416;SDS011;35290;39.550;8.786;2022-12-07T10:49:41;15.93;;;3.30;;
49416;SDS011;35290;39.550;8.786;2022-12-07T10:52:32;14.55;;;4.60;;
49416;SDS011;35290;39.550;8.786;2022-12-07T10:55:25;15.40;;;4.47;;
49416;SDS011;35290;39.550;8.786;2022-12-07T11:00:48;13.35;;;5.07;;
49416;SDS011;35290;39.550;8.786;2022-12-07T11:37:40;14.30;;;3.55;;
49416;SDS011;35290;39.550;8.786;2022-12-07T11:42:41;11.20;;;3.78;;
49416;SDS011;35290;39.550;8.786;2022-12-07T11:45:18;11.18;;;2.92;;
49416;SDS011;35290;39.550;8.786;2022-12-07T11:47:47;9.57;;;3.45;;
49416;SDS011;35290;39.550;8.786;2022-12-07T11:50:25;14.95;;;4.68;;
49416;SDS011;35290;39.550;8.786;2022-12-07T11:52:57;14.70;;;4.05;;
49416;SDS011;35290;39.550;8.786;2022-12-07T11:55:26;12.23;;;3.20;;
49416;SDS011;35290;39.550;8.786;2022-12-07T11:58:09;13.10;;;3.03;;
49416;SDS011;35290;39.550;8.786;2022-12-07T12:01:14;16.58;;;3.75;;
49416;SDS011;35290;39.550;8.786;2022-12-07T12:09:04;11.00;;;4.22;;
49416;SDS011;35290;39.550;8.786;2022-12-07T12:20:19;9.25;;;2.92;;
49416;SDS011;35290;39.550;8.786;2022-12-07T12:22:51;20.00;;;3.10;;
49416;SDS011;35290;39.550;8.786;2022-12-07T12:27:59;13.13;;;3.05;;
49416;SDS011;35290;39.550;8.786;2022-12-07T12:30:32;16.98;;;4.35;;
49416;SDS011;35290;39.550;8.786;2022-12-07T12:35:40;21.75;;;4.95;;
49416;SDS011;35290;39.550;8.786;2022-12-07T12:40:58;11.38;;;4.05;;
49416;SDS011;35290;39.550;8.786;2022-12-07T12:43:44;15.48;;;3.72;;
49416;SDS011;35290;39.550;8.786;2022-12-07T12:51:41;10.73;;;3.15;;
49416;SDS011;35290;39.550;8.786;2022-12-07T12:54:18;10.80;;;3.10;;
49416;SDS011;35290;39.550;8.786;2022-12-07T12:59:30;16.40;;;4.65;;
49416;SDS011;35290;39.550;8.786;2022-12-07T13:04:37;16.45;;;5.18;;
49416;SDS011;35290;39.550;8.786;2022-12-07T13:07:47;12.98;;;4.60;;
49416;SDS011;35290;39.550;8.786;2022-12-07T13:10:54;12.65;;;3.28;;
49416;SDS011;35290;39.550;8.786;2022-12-07T13:26:23;15.52;;;3.72;;
49416;SDS011;35290;39.550;8.786;2022-12-07T13:34:41;13.07;;;4.38;;
49416;SDS011;35290;39.550;8.786;2022-12-07T13:42:31;14.32;;;3.63;;
49416;SDS011;35290;39.550;8.786;2022-12-07T13:44:59;14.75;;;3.72;;
49416;SDS011;35290;39.550;8.786;2022-12-07T13:52:55;16.57;;;5.07;;
49416;SDS011;35290;39.550;8.786;2022-12-07T13:55:25;13.40;;;3.67;;
49416;SDS011;35290;39.550;8.786;2022-12-07T13:57:52;12.45;;;3.67;;
49416;SDS011;35290;39.550;8.786;2022-12-07T14:00:21;14.43;;;5.57;;
49416;SDS011;35290;39.550;8.786;2022-12-07T14:05:39;13.27;;;3.90;;
49416;SDS011;35290;39.550;8.786;2022-12-07T14:10:41;14.00;;;4.50;;
49416;SDS011;35290;39.550;8.786;2022-12-07T14:15:49;14.50;;;3.50;;
49416;SDS011;35290;39.550;8.786;2022-12-07T14:18:58;9.15;;;3.65;;
49416;SDS011;35290;39.550;8.786;2022-12-07T14:26:34;12.93;;;4.38;;
49416;SDS011;35290;39.550;8.786;2022-12-07T14:35:07;17.13;;;4.85;;
49416;SDS011;35290;39.550;8.786;2022-12-07T14:37:33;10.23;;;4.60;;
49416;SDS011;35290;39.550;8.786;2022-12-07T14:39:58;15.30;;;4.70;;
49416;SDS011;35290;39.550;8.786;2022-12-07T14:42:29;12.90;;;4.30;;
49416;SDS011;35290;39.550;8.786;2022-12-07T14:44:55;10.30;;;3.80;;
49416;SDS011;35290;39.550;8.786;2022-12-07T14:47:22;13.23;;;4.07;;
49416;SDS011;35290;39.550;8.786;2022-12-07T14:49:48;9.68;;;4.82;;
49416;SDS011;35290;39.550;8.786;2022-12-07T14:52:24;17.65;;;8.18;;
49416;SDS011;35290;39.550;8.786;2022-12-07T14:54:52;21.00;;;7.90;;
49416;SDS011;35290;39.550;8.786;2022-12-07T14:57:17;19.25;;;7.97;;
49416;SDS011;35290;39.550;8.786;2022-12-07T14:59:43;16.58;;;5.75;;
49416;SDS011;35290;39.550;8.786;2022-12-07T15:02:09;10.35;;;4.03;;
49416;SDS011;35290;39.550;8.786;2022-12-07T15:04:37;13.98;;;6.88;;
49416;SDS011;35290;39.550;8.786;2022-12-07T15:07:03;20.23;;;9.40;;
49416;SDS011;35290;39.550;8.786;2022-12-07T15:09:30;29.00;;;12.45;;
49416;SDS011;35290;39.550;8.786;2022-12-07T15:11:55;23.83;;;11.18;;
49416;SDS011;35290;39.550;8.786;2022-12-07T15:14:21;26.02;;;12.10;;
49416;SDS011;35290;39.550;8.786;2022-12-07T15:16:46;22.98;;;12.32;;
49416;SDS011;35290;39.550;8.786;2022-12-07T15:19:13;27.95;;;15.07;;
49416;SDS011;35290;39.550;8.786;2022-12-07T15:21:40;28.70;;;14.80;;
49416;SDS011;35290;39.550;8.786;2022-12-07T15:24:07;24.27;;;10.75;;
49416;SDS011;35290;39.550;8.786;2022-12-07T15:26:33;19.02;;;9.85;;
49416;SDS011;35290;39.550;8.786;2022-12-07T15:28:59;21.58;;;11.95;;
49416;SDS011;35290;39.550;8.786;2022-12-07T15:31:24;24.75;;;12.70;;
49416;SDS011;35290;39.550;8.786;2022-12-07T15:33:50;29.27;;;18.17;;
49416;SDS011;35290;39.550;8.786;2022-12-07T15:36:25;51.03;;;32.75;;
49416;SDS011;35290;39.550;8.786;2022-12-07T15:38:54;38.55;;;25.13;;
49416;SDS011;35290;39.550;8.786;2022-12-07T15:41:20;25.55;;;15.60;;
49416;SDS011;35290;39.550;8.786;2022-12-07T15:43:45;29.98;;;14.10;;
49416;SDS011;35290;39.550;8.786;2022-12-07T15:46:33;16.25;;;11.70;;
49416;SDS011;35290;39.550;8.786;2022-12-07T15:49:00;22.60;;;12.93;;
49416;SDS011;35290;39.550;8.786;2022-12-07T15:51:36;23.63;;;13.55;;
49416;SDS011;35290;39.550;8.786;2022-12-07T15:54:01;27.13;;;16.73;;
49416;SDS011;35290;39.550;8.786;2022-12-07T15:56:27;34.83;;;17.75;;
49416;SDS011;35290;39.550;8.786;2022-12-07T15:58:52;33.40;;;19.08;;
49416;SDS011;35290;39.550;8.786;2022-12-07T16:01:18;26.48;;;16.27;;
49416;SDS011;35290;39.550;8.786;2022-12-07T16:03:45;26.77;;;13.02;;
49416;SDS011;35290;39.550;8.786;2022-12-07T16:06:11;17.85;;;11.50;;
49416;SDS011;35290;39.550;8.786;2022-12-07T16:08:41;19.55;;;10.55;;
49416;SDS011;35290;39.550;8.786;2022-12-07T16:11:07;21.45;;;10.00;;
49416;SDS011;35290;39.550;8.786;2022-12-07T16:13:33;23.52;;;12.55;;
49416;SDS011;35290;39.550;8.786;2022-12-07T16:16:02;28.33;;;15.60;;
49416;SDS011;35290;39.550;8.786;2022-12-07T16:18:28;25.00;;;14.50;;
49416;SDS011;35290;39.550;8.786;2022-12-07T16:20:54;25.08;;;15.18;;
49416;SDS011;35290;39.550;8.786;2022-12-07T16:23:19;30.17;;;17.63;;
49416;SDS011;35290;39.550;8.786;2022-12-07T16:25:45;28.45;;;16.58;;
49416;SDS011;35290;39.550;8.786;2022-12-07T16:28:10;27.98;;;16.70;;
49416;SDS011;35290;39.550;8.786;2022-12-07T16:30:36;26.95;;;15.63;;
49416;SDS011;35290;39.550;8.786;2022-12-07T16:33:01;28.25;;;15.50;;
49416;SDS011;35290;39.550;8.786;2022-12-07T16:35:27;26.05;;;14.40;;
49416;SDS011;35290;39.550;8.786;2022-12-07T16:37:53;27.35;;;15.70;;
49416;SDS011;35290;39.550;8.786;2022-12-07T16:40:18;41.58;;;20.52;;
49416;SDS011;35290;39.550;8.786;2022-12-07T16:42:49;37.35;;;21.23;;
49416;SDS011;35290;39.550;8.786;2022-12-07T16:45:15;35.55;;;18.88;;
49416;SDS011;35290;39.550;8.786;2022-12-07T16:47:41;35.97;;;19.40;;
49416;SDS011;35290;39.550;8.786;2022-12-07T16:50:06;39.97;;;19.38;;
49416;SDS011;35290;39.550;8.786;2022-12-07T16:52:33;34.63;;;19.08;;
49416;SDS011;35290;39.550;8.786;2022-12-07T16:54:58;28.48;;;17.63;;
49416;SDS011;35290;39.550;8.786;2022-12-07T16:57:24;28.90;;;14.82;;
49416;SDS011;35290;39.550;8.786;2022-12-07T16:59:50;30.58;;;14.48;;
49416;SDS011;35290;39.550;8.786;2022-12-07T17:05:07;20.80;;;12.77;;
49416;SDS011;35290;39.550;8.786;2022-12-07T17:07:33;25.33;;;12.60;;
49416;SDS011;35290;39.550;8.786;2022-12-07T17:09:58;24.08;;;12.43;;
49416;SDS011;35290;39.550;8.786;2022-12-07T17:12:24;21.63;;;12.15;;
49416;SDS011;35290;39.550;8.786;2022-12-07T17:14:50;24.25;;;13.48;;
49416;SDS011;35290;39.550;8.786;2022-12-07T17:17:34;25.08;;;13.70;;
49416;SDS011;35290;39.550;8.786;2022-12-07T17:20:00;22.63;;;12.70;;
49416;SDS011;35290;39.550;8.786;2022-12-07T17:22:25;28.65;;;13.35;;
49416;SDS011;35290;39.550;8.786;2022-12-07T17:24:51;24.10;;;11.90;;
49416;SDS011;35290;39.550;8.786;2022-12-07T17:27:16;18.60;;;10.25;;